05:26
Airports
Links
Donate
Help keep this website running!
PayPal
Bitcoin
METAR
EGLL 280520Z 03004KT 330V060 8000 FEW004 BKN006 15/14 Q0998 NOSIG
Current Weather Conditions at EGLL
IFR 05:20:00 28-06-17
Altimeter:29.47 hg
Temp:15.0°c 59°f
Dew point:14.0°c 57°f
Wind:4 knots, 4.6 mph, 2 m/s, from 30°
Visibility:4.97 statute miles
600(BKN) Broken
400(FEW) A few
No significant weather changes expected within 2 hours.
Past METAR reports
IFR 04:50:00 28-06-17
Automated station, no observer
Altimeter:29.47 hg
Temp:15.0°c 59°f
Dew point:14.0°c 57°f
Wind:4 knots, 4.6 mph, 2 m/s, from 20°
Visibility:4.97 statute miles
500(OVC) Overcast
No significant weather changes expected within 2 hours.
EGLL 280450Z AUTO 02004KT 340V060 8000 -RA OVC005 15/14 Q0998 NOSIG
IFR 04:20:00 28-06-17
Automated station, no observer
Altimeter:29.47 hg
Temp:15.0°c 59°f
Dew point:14.0°c 57°f
Wind:4 knots, 4.6 mph, 2 m/s, from 20°
Visibility:5.59 statute miles
500(BKN) Broken
EGLL 280420Z AUTO 02004KT 320V070 9000 -RA BKN005 15/14 Q0998
IFR 03:50:00 28-06-17
Automated station, no observer
Altimeter:29.47 hg
Temp:15.0°c 59°f
Dew point:14.0°c 57°f
Wind:3 knots, 3.5 mph, 2 m/s,
Variable direction
Visibility:5.59 statute miles
500(BKN) Broken
EGLL 280350Z AUTO VRB03KT 9000 BKN005 15/14 Q0998
IFR 03:20:00 28-06-17
Altimeter:29.50 hg
Temp:15.0°c 59°f
Dew point:14.0°c 57°f
Wind:4 knots, 4.6 mph, 2 m/s, from 10°
Visibility:4.97 statute miles
600(BKN) Broken
EGLL 280320Z 01004KT 330V040 8000 BKN006 15/14 Q0999
IFR 02:50:00 28-06-17
Altimeter:29.50 hg
Temp:15.0°c 59°f
Dew point:14.0°c 57°f
Wind:4 knots, 4.6 mph, 2 m/s, from 360°
Visibility:3.11 statute miles
600(BKN) Broken
400(FEW) A few
EGLL 280250Z 36004KT 330V040 5000 -RA FEW004 BKN006 15/14 Q0999 TEMPO 4000 RA
IFR 02:20:00 28-06-17
Altimeter:29.50 hg
Temp:15.0°c 59°f
Dew point:14.0°c 57°f
Wind:5 knots, 5.8 mph, 3 m/s, from 360°
Visibility:2.49 statute miles
600(BKN) Broken
300(FEW) A few
EGLL 280220Z 36005KT 310V040 4000 -DZ BR FEW003 BKN006 15/14 Q0999
TAF
TAF EGLL 280457Z 2806/2912 35006KT 9999 BKN006 PROB30 TEMPO 2806/2809 4000 -RADZ BR BKN004 BECMG 2809/2812 BKN022 BECMG 2815/2818 29010KT PROB30 2900/2908 8000 BKN010
Forecast at EGLL
06:00 28-06-17 to 09:00 28-06-17
Wind:6 Knots from 350°
Visibility:6.21 statute miles
600BKN Broken
TEMPO 06:00 28-06-17 to 09:00 28-06-17
30% -RA -DZ BR
Visibility:2.49 statute miles
400BKN Broken
BECMG 09:00 28-06-17 to 15:00 28-06-17
Wind:6 Knots from 350°
Visibility:6.21 statute miles
2200BKN Broken
BECMG 15:00 28-06-17 to 12:00 29-06-17
Wind:10 Knots from 290°
Visibility:6.21 statute miles
2200BKN Broken
PROB 00:00 29-06-17 to 08:00 29-06-17
30%
Visibility:4.97 statute miles
1000BKN Broken